createdAt,value
2018-07-21T00:00:43.760Z,1007.54
2018-07-21T00:01:43.829Z,1007.52
2018-07-21T00:02:43.888Z,1007.50
2018-07-21T00:03:43.957Z,1007.46
2018-07-21T00:04:44.027Z,1007.44
2018-07-21T00:05:44.113Z,1007.42
2018-07-21T00:06:44.160Z,1007.41
2018-07-21T00:07:44.232Z,1007.44
2018-07-21T00:08:44.301Z,1007.42
2018-07-21T00:09:44.360Z,1007.43
2018-07-21T00:10:44.433Z,1007.44
2018-07-21T00:11:44.503Z,1007.42
2018-07-21T00:12:44.565Z,1007.43
2018-07-21T00:13:44.633Z,1007.43
2018-07-21T00:14:44.697Z,1007.38
2018-07-21T00:15:44.769Z,1007.43
2018-07-21T00:16:44.837Z,1007.37
2018-07-21T00:17:44.901Z,1007.41
2018-07-21T00:18:44.967Z,1007.37
2018-07-21T00:19:45.037Z,1007.35
2018-07-21T00:20:45.126Z,1007.38
2018-07-21T00:21:45.165Z,1007.41
2018-07-21T00:22:45.231Z,1007.37
2018-07-21T00:23:45.301Z,1007.36
2018-07-21T00:24:45.369Z,1007.38
2018-07-21T00:25:45.477Z,1007.34
2018-07-21T00:26:45.509Z,1007.32
2018-07-21T00:27:45.576Z,1007.37
2018-07-21T00:28:45.649Z,1007.30
2018-07-21T00:29:45.709Z,1007.33
2018-07-21T00:30:45.793Z,1007.31
2018-07-21T00:31:45.853Z,1007.29
2018-07-21T00:32:45.913Z,1007.30
2018-07-21T00:33:46.000Z,1007.36
2018-07-21T00:34:46.045Z,1007.27
2018-07-21T00:35:46.125Z,1007.28
2018-07-21T00:36:46.183Z,1007.31
2018-07-21T00:37:46.245Z,1007.30
2018-07-21T00:38:46.316Z,1007.29
2018-07-21T00:39:46.378Z,1007.32
2018-07-21T00:40:46.465Z,1007.28
2018-07-21T00:41:46.520Z,1007.25
2018-07-21T00:42:46.577Z,1007.25
2018-07-21T00:43:46.649Z,1007.25
2018-07-21T00:44:46.717Z,1007.29
2018-07-21T00:45:46.789Z,1007.28
2018-07-21T00:46:46.854Z,1007.28
2018-07-21T00:47:46.914Z,1007.26
2018-07-21T00:48:46.989Z,1007.27
2018-07-21T00:49:47.054Z,1007.27
2018-07-21T00:50:47.142Z,1007.27
2018-07-21T00:51:47.182Z,1007.26
2018-07-21T00:52:47.250Z,1007.30
2018-07-21T00:53:47.318Z,1007.29
2018-07-21T00:54:47.386Z,1007.28
2018-07-21T00:55:47.458Z,1007.28
2018-07-21T00:56:47.531Z,1007.25
2018-07-21T00:57:47.590Z,1007.29
2018-07-21T00:58:47.662Z,1007.26
2018-07-21T00:59:47.718Z,1007.28
2018-07-21T01:00:47.795Z,1007.29
2018-07-21T01:01:47.858Z,1007.30
2018-07-21T01:02:47.918Z,1007.31
2018-07-21T01:03:47.987Z,1007.32
2018-07-21T01:04:48.059Z,1007.37
2018-07-21T01:05:48.143Z,1007.36
2018-07-21T01:06:48.186Z,1007.33
2018-07-21T01:07:48.258Z,1007.38
2018-07-21T01:08:48.322Z,1007.41
2018-07-21T01:09:48.390Z,1007.37
2018-07-21T01:10:48.462Z,1007.37
2018-07-21T01:11:48.531Z,1007.39
2018-07-21T01:12:48.591Z,1007.39
2018-07-21T01:13:48.654Z,1007.39
2018-07-21T01:14:48.727Z,1007.40
2018-07-21T01:15:48.798Z,1007.39
2018-07-21T01:16:48.863Z,1007.40
2018-07-21T01:17:48.923Z,1007.41
2018-07-21T01:18:48.991Z,1007.44
2018-07-21T01:19:49.059Z,1007.38
2018-07-21T01:20:49.279Z,1007.37
2018-07-21T01:21:49.192Z,1007.40
2018-07-21T01:22:49.272Z,1007.39
2018-07-21T01:23:49.331Z,1007.37
2018-07-21T01:24:49.391Z,1007.36
2018-07-21T01:25:49.468Z,1007.37
2018-07-21T01:26:49.531Z,1007.41
2018-07-21T01:27:49.591Z,1007.39
2018-07-21T01:28:49.660Z,1007.37
2018-07-21T01:29:49.728Z,1007.37
2018-07-21T01:30:49.800Z,1007.35
2018-07-21T01:31:49.864Z,1007.35
2018-07-21T01:32:49.928Z,1007.32
2018-07-21T01:33:49.992Z,1007.34
2018-07-21T01:34:50.066Z,1007.32
2018-07-21T01:35:50.137Z,1007.34
2018-07-21T01:36:50.348Z,1007.30
2018-07-21T01:37:50.264Z,1007.29
2018-07-21T01:38:50.324Z,1007.30
2018-07-21T01:39:50.393Z,1007.33
2018-07-21T01:40:50.461Z,1007.32
2018-07-21T01:41:50.533Z,1007.28
2018-07-21T01:42:50.601Z,1007.35
2018-07-21T01:43:50.660Z,1007.34
2018-07-21T01:44:50.728Z,1007.36
2018-07-21T01:45:50.792Z,1007.33
2018-07-21T01:46:50.864Z,1007.36
2018-07-21T01:47:50.929Z,1007.39
2018-07-21T01:48:50.999Z,1007.43
2018-07-21T01:49:51.064Z,1007.39
2018-07-21T01:50:51.125Z,1007.40
2018-07-21T01:51:51.192Z,1007.41
2018-07-21T01:52:51.412Z,1007.37
2018-07-21T01:53:51.329Z,1007.38
2018-07-21T01:54:51.392Z,1007.34
2018-07-21T01:55:51.461Z,1007.29
2018-07-21T01:56:51.525Z,1007.27
2018-07-21T01:57:51.601Z,1007.27
2018-07-21T01:58:51.665Z,1007.23
2018-07-21T01:59:51.728Z,1007.24
2018-07-21T02:00:51.793Z,1007.22
2018-07-21T02:01:51.865Z,1007.20
2018-07-21T02:02:51.933Z,1007.18
2018-07-21T02:03:52.005Z,1007.20
2018-07-21T02:04:52.061Z,1007.18
2018-07-21T02:05:52.125Z,1007.16
2018-07-21T02:06:52.197Z,1007.19
2018-07-21T02:07:52.258Z,1007.15
2018-07-21T02:08:52.642Z,1007.16
2018-07-21T02:09:52.393Z,1007.17
2018-07-21T02:10:52.461Z,1007.16
2018-07-21T02:11:52.525Z,1007.13
2018-07-21T02:12:52.593Z,1007.08
2018-07-21T02:13:52.666Z,1007.09
2018-07-21T02:14:52.730Z,1007.08
2018-07-21T02:15:52.789Z,1007.11
2018-07-21T02:16:52.857Z,1007.09
2018-07-21T02:17:52.925Z,1007.11
2018-07-21T02:18:52.997Z,1007.13
2018-07-21T02:19:53.061Z,1007.12
2018-07-21T02:20:53.121Z,1007.11
2018-07-21T02:21:53.193Z,1007.11
2018-07-21T02:22:53.261Z,1007.09
2018-07-21T02:23:53.472Z,1007.10
2018-07-21T02:24:53.390Z,1007.11
2018-07-21T02:25:53.454Z,1007.08
2018-07-21T02:26:53.522Z,1007.08
2018-07-21T02:27:53.585Z,1007.10
2018-07-21T02:28:53.661Z,1007.14
2018-07-21T02:29:53.726Z,1007.09
2018-07-21T02:30:53.786Z,1007.12
2018-07-21T02:31:53.853Z,1007.07
2018-07-21T02:32:53.918Z,1007.05
2018-07-21T02:33:53.994Z,1007.04
2018-07-21T02:34:54.063Z,1007.01
2018-07-21T02:35:54.122Z,1007.04
2018-07-21T02:36:54.186Z,1007.00
2018-07-21T02:37:54.250Z,1006.97
2018-07-21T02:38:54.330Z,1006.98
2018-07-21T02:39:54.382Z,1006.99
2018-07-21T02:40:54.450Z,1006.97
2018-07-21T02:41:54.521Z,1006.96
2018-07-21T02:42:54.579Z,1006.94
2018-07-21T02:43:54.655Z,1006.92
2018-07-21T02:44:54.723Z,1006.91
2018-07-21T02:45:54.783Z,1006.89
2018-07-21T02:46:54.847Z,1006.89
2018-07-21T02:47:54.914Z,1006.91
2018-07-21T02:48:54.987Z,1006.92
2018-07-21T02:49:55.055Z,1006.91
2018-07-21T02:50:55.119Z,1006.93
2018-07-21T02:51:55.179Z,1006.91
2018-07-21T02:52:55.242Z,1006.90
2018-07-21T02:53:55.471Z,1006.90
2018-07-21T02:54:55.379Z,1006.95
2018-07-21T02:55:55.443Z,1006.93
2018-07-21T02:56:55.507Z,1006.96
2018-07-21T02:57:55.575Z,1006.97
2018-07-21T02:58:55.646Z,1006.99
2018-07-21T02:59:55.719Z,1007.00
2018-07-21T03:00:55.771Z,1007.01
2018-07-21T03:01:55.839Z,1007.01
2018-07-21T03:02:55.903Z,1007.01
2018-07-21T03:03:55.979Z,1006.98
2018-07-21T03:04:56.043Z,1006.98
2018-07-21T03:05:56.103Z,1006.99
2018-07-21T03:06:56.171Z,1006.97
2018-07-21T03:07:56.235Z,1006.99
2018-07-21T03:08:56.307Z,1006.99
2018-07-21T03:09:56.426Z,1006.95
2018-07-21T03:10:56.431Z,1006.98
2018-07-21T03:11:56.499Z,1006.92
2018-07-21T03:12:56.567Z,1006.94
2018-07-21T03:13:56.631Z,1006.92
2018-07-21T03:14:56.703Z,1006.96
2018-07-21T03:15:56.788Z,1006.93
2018-07-21T03:16:56.833Z,1006.94
2018-07-21T03:17:56.900Z,1006.88
2018-07-21T03:18:56.959Z,1006.90
2018-07-21T03:19:57.040Z,1006.88
2018-07-21T03:20:57.100Z,1006.90
2018-07-21T03:21:57.159Z,1006.94
2018-07-21T03:22:57.223Z,1006.92
2018-07-21T03:23:57.292Z,1006.94
2018-07-21T03:24:57.384Z,1006.97
2018-07-21T03:25:57.423Z,1006.95
2018-07-21T03:26:57.491Z,1006.94
2018-07-21T03:27:57.557Z,1006.93
2018-07-21T03:28:57.619Z,1006.95
2018-07-21T03:29:57.697Z,1006.96
2018-07-21T03:30:57.826Z,1006.95
2018-07-21T03:31:57.820Z,1006.89
2018-07-21T03:32:57.888Z,1006.87
2018-07-21T03:33:57.955Z,1006.91
2018-07-21T03:34:58.024Z,1006.92
2018-07-21T03:35:58.088Z,1006.92
2018-07-21T03:36:58.148Z,1006.92
2018-07-21T03:37:58.216Z,1006.91
2018-07-21T03:38:58.279Z,1006.89
2018-07-21T03:39:58.352Z,1006.89
2018-07-21T03:40:58.420Z,1006.90
2018-07-21T03:41:58.480Z,1006.88
2018-07-21T03:42:58.544Z,1006.91
2018-07-21T03:43:58.615Z,1006.90
2018-07-21T03:44:58.688Z,1006.89
2018-07-21T03:45:58.752Z,1006.90
2018-07-21T03:46:58.808Z,1006.88
2018-07-21T03:47:58.872Z,1006.92
2018-07-21T03:48:58.943Z,1006.89
2018-07-21T03:49:59.012Z,1006.89
2018-07-21T03:50:59.076Z,1006.88
2018-07-21T03:51:59.136Z,1006.85
2018-07-21T03:52:59.204Z,1006.85
2018-07-21T03:53:59.272Z,1006.86
2018-07-21T03:54:59.377Z,1006.89
2018-07-21T03:55:59.400Z,1006.90
2018-07-21T03:56:59.468Z,1006.89
2018-07-21T03:57:59.534Z,1006.89
2018-07-21T03:58:59.596Z,1006.93
2018-07-21T03:59:59.673Z,1006.93
2018-07-21T04:00:59.737Z,1006.93
2018-07-21T04:01:59.798Z,1006.95
2018-07-21T04:02:59.862Z,1006.99
2018-07-21T04:03:59.928Z,1006.97
2018-07-21T04:05:00.000Z,1006.97
2018-07-21T04:06:00.069Z,1006.96
2018-07-21T04:07:00.137Z,1006.96
2018-07-21T04:08:00.193Z,1006.92
2018-07-21T04:09:00.309Z,1006.97
2018-07-21T04:10:00.325Z,1006.90
2018-07-21T04:11:00.405Z,1006.94
2018-07-21T04:12:00.457Z,1006.90
2018-07-21T04:13:00.521Z,1006.89
2018-07-21T04:14:00.592Z,1006.91
2018-07-21T04:15:00.654Z,1006.87
2018-07-21T04:16:00.725Z,1006.87
2018-07-21T04:17:00.793Z,1006.93
2018-07-21T04:18:00.850Z,1006.92
2018-07-21T04:19:00.925Z,1006.94
2018-07-21T04:20:00.981Z,1007.01
2018-07-21T04:21:01.054Z,1007.01
2018-07-21T04:22:01.122Z,1007.02
2018-07-21T04:23:01.178Z,1007.00
2018-07-21T04:24:01.246Z,1007.02
2018-07-21T04:25:01.314Z,1007.02
2018-07-21T04:26:01.394Z,1007.01
2018-07-21T04:27:01.442Z,1006.98
2018-07-21T04:28:01.510Z,1006.99
2018-07-21T04:29:01.574Z,1006.99
2018-07-21T04:30:01.642Z,1007.01
2018-07-21T04:31:01.717Z,1007.03
2018-07-21T04:32:01.782Z,1007.03
2018-07-21T04:33:01.838Z,1007.09
2018-07-21T04:34:01.910Z,1007.12
2018-07-21T04:35:01.974Z,1007.15
2018-07-21T04:36:02.042Z,1007.15
2018-07-21T04:37:02.114Z,1007.16
2018-07-21T04:38:02.172Z,1007.14
2018-07-21T04:39:02.234Z,1007.18
2018-07-21T04:40:02.300Z,1007.12
2018-07-21T04:41:02.371Z,1007.15
2018-07-21T04:42:02.439Z,1007.14
2018-07-21T04:43:02.498Z,1007.17
2018-07-21T04:44:02.563Z,1007.23
2018-07-21T04:45:02.635Z,1007.28
2018-07-21T04:46:02.707Z,1007.27
2018-07-21T04:47:02.767Z,1007.30
2018-07-21T04:48:02.827Z,1007.29
2018-07-21T04:49:02.891Z,1007.28
2018-07-21T04:50:02.959Z,1007.30
2018-07-21T04:51:03.031Z,1007.35
2018-07-21T04:52:03.096Z,1007.38
2018-07-21T04:53:03.154Z,1007.37
2018-07-21T04:54:03.264Z,1007.36
2018-07-21T04:55:03.286Z,1007.36
2018-07-21T04:56:03.367Z,1007.40
2018-07-21T04:57:03.418Z,1007.42
2018-07-21T04:58:03.486Z,1007.42
2018-07-21T04:59:03.550Z,1007.41
2018-07-21T05:00:03.614Z,1007.42
2018-07-21T05:01:03.710Z,1007.42
2018-07-21T05:02:03.759Z,1007.42
2018-07-21T05:03:03.815Z,1007.45
2018-07-21T05:04:03.883Z,1007.49
2018-07-21T05:05:03.947Z,1007.48
2018-07-21T05:06:04.017Z,1007.49
2018-07-21T05:07:04.391Z,1007.50
2018-07-21T05:08:04.143Z,1007.48
2018-07-21T05:09:04.211Z,1007.48
2018-07-21T05:10:04.275Z,1007.51
2018-07-21T05:11:04.343Z,1007.48
2018-07-21T05:12:04.415Z,1007.49
2018-07-21T05:13:04.483Z,1007.48
2018-07-21T05:14:04.542Z,1007.44
2018-07-21T05:15:04.607Z,1007.46
2018-07-21T05:16:04.671Z,1007.40
2018-07-21T05:17:04.743Z,1007.44
2018-07-21T05:18:04.811Z,1007.40
2018-07-21T05:19:04.868Z,1007.44
2018-07-21T05:20:04.955Z,1007.45
2018-07-21T05:21:05.004Z,1007.45
2018-07-21T05:22:05.083Z,1007.45
2018-07-21T05:23:05.136Z,1007.47
2018-07-21T05:24:05.201Z,1007.51
2018-07-21T05:25:05.267Z,1007.47
2018-07-21T05:26:05.331Z,1007.48
2018-07-21T05:27:05.404Z,1007.52
2018-07-21T05:28:05.476Z,1007.54
2018-07-21T05:29:05.532Z,1007.56
2018-07-21T05:30:05.595Z,1007.60
2018-07-21T05:31:05.664Z,1007.56
2018-07-21T05:32:05.737Z,1007.59
2018-07-21T05:33:05.804Z,1007.62
2018-07-21T05:34:05.864Z,1007.55
2018-07-21T05:35:05.928Z,1007.58
2018-07-21T05:36:05.996Z,1007.58
2018-07-21T05:37:06.074Z,1007.58
2018-07-21T05:38:06.137Z,1007.58
2018-07-21T05:39:06.203Z,1007.58
2018-07-21T05:40:06.261Z,1007.60
2018-07-21T05:41:06.340Z,1007.63
2018-07-21T05:42:06.400Z,1007.66
2018-07-21T05:43:06.464Z,1007.70
2018-07-21T05:44:06.524Z,1007.71
2018-07-21T05:45:06.673Z,1007.71
2018-07-21T05:46:06.660Z,1007.76
2018-07-21T05:47:06.732Z,1007.75
2018-07-21T05:48:06.800Z,1007.76
2018-07-21T05:49:06.861Z,1007.77
2018-07-21T05:50:06.925Z,1007.79
2018-07-21T05:51:06.993Z,1007.77
2018-07-21T05:52:07.065Z,1007.78
2018-07-21T05:53:07.180Z,1007.84
2018-07-21T05:54:07.193Z,1007.84
2018-07-21T05:55:07.329Z,1007.83
2018-07-21T05:56:07.329Z,1007.85
2018-07-21T05:57:07.401Z,1007.85
2018-07-21T05:58:07.469Z,1007.85
2018-07-21T05:59:07.533Z,1007.87
2018-07-21T06:00:07.593Z,1007.82
2018-07-21T06:01:07.665Z,1007.91
2018-07-21T06:02:07.737Z,1007.90
2018-07-21T06:03:07.833Z,1007.95
2018-07-21T06:04:07.868Z,1007.95
2018-07-21T06:05:07.933Z,1007.95
2018-07-21T06:06:08.002Z,1007.93
2018-07-21T06:07:08.174Z,1007.94
2018-07-21T06:08:08.133Z,1007.94
2018-07-21T06:09:08.202Z,1007.95
2018-07-21T06:10:08.274Z,1007.94
2018-07-21T06:11:08.347Z,1007.94
2018-07-21T06:12:08.412Z,1007.88
2018-07-21T06:13:08.514Z,1007.94
2018-07-21T06:14:08.554Z,1007.95
2018-07-21T06:15:08.606Z,1007.97
2018-07-21T06:16:08.670Z,1007.91
2018-07-21T06:17:08.834Z,1007.94
2018-07-21T06:18:08.814Z,1007.98
2018-07-21T06:19:08.878Z,1008.04
2018-07-21T06:20:08.946Z,1008.06
2018-07-21T06:21:09.019Z,1008.10
2018-07-21T06:22:09.234Z,1008.13
2018-07-21T06:23:09.146Z,1008.16
2018-07-21T06:24:09.218Z,1008.18
2018-07-21T06:25:09.325Z,1008.21
2018-07-21T06:26:09.350Z,1008.24
2018-07-21T06:27:09.422Z,1008.29
2018-07-21T06:28:09.528Z,1008.29
2018-07-21T06:29:09.554Z,1008.35
2018-07-21T06:30:09.619Z,1008.40
2018-07-21T06:31:09.686Z,1008.67
2018-07-21T06:32:09.762Z,1009.07
2018-07-21T06:33:09.830Z,1009.39
2018-07-21T06:34:09.891Z,1009.56
2018-07-21T06:35:09.969Z,1009.63
2018-07-21T06:36:10.035Z,1009.59
2018-07-21T06:37:10.306Z,1009.56
2018-07-21T06:38:10.170Z,1009.50
2018-07-21T06:39:10.242Z,1009.55
2018-07-21T06:40:10.311Z,1009.36
2018-07-21T06:41:10.379Z,1009.58
2018-07-21T06:42:10.464Z,1009.31
2018-07-21T06:43:10.543Z,1008.92
2018-07-21T06:44:10.595Z,1008.60
2018-07-21T06:45:10.671Z,1008.45
2018-07-21T06:46:10.739Z,1008.69
2018-07-21T06:47:10.814Z,1008.59
2018-07-21T06:48:10.887Z,1008.57
2018-07-21T06:49:10.954Z,1008.48
2018-07-21T06:50:11.023Z,1008.47
2018-07-21T06:51:11.095Z,1008.47
2018-07-21T06:52:11.332Z,1008.66
2018-07-21T06:53:11.235Z,1009.24
2018-07-21T06:54:11.310Z,1008.95
2018-07-21T06:55:11.383Z,1008.66
2018-07-21T06:56:11.451Z,1008.52
2018-07-21T06:57:11.527Z,1008.54
2018-07-21T06:58:11.599Z,1008.55
2018-07-21T06:59:11.720Z,1008.54
2018-07-21T07:00:11.732Z,1008.57
2018-07-21T07:01:11.803Z,1008.59
2018-07-21T07:02:11.883Z,1008.76
2018-07-21T07:03:11.948Z,1009.30
2018-07-21T07:04:12.016Z,1009.83
2018-07-21T07:05:12.087Z,1008.90
2018-07-21T07:06:12.152Z,1008.55
2018-07-21T07:07:12.439Z,1008.49
2018-07-21T07:08:12.292Z,1008.48
2018-07-21T07:09:12.363Z,1008.45
2018-07-21T07:10:12.496Z,1008.47
2018-07-21T07:11:12.503Z,1008.47
2018-07-21T07:12:12.580Z,1008.61
2018-07-21T07:13:12.648Z,1008.62
2018-07-21T07:14:12.711Z,1008.63
2018-07-21T07:15:12.784Z,1008.75
2018-07-21T07:16:12.852Z,1008.77
2018-07-21T07:17:12.928Z,1008.73
2018-07-21T07:18:13.000Z,1008.77
2018-07-21T07:19:13.060Z,1008.62
2018-07-21T07:20:13.132Z,1008.62
2018-07-21T07:21:13.206Z,1008.56
2018-07-21T07:22:13.296Z,1008.86
2018-07-21T07:23:13.340Z,1008.75
2018-07-21T07:24:13.412Z,1008.63
2018-07-21T07:25:13.484Z,1008.58
2018-07-21T07:26:13.552Z,1008.55
2018-07-21T07:27:13.628Z,1008.56
2018-07-21T07:28:13.696Z,1008.58
2018-07-21T07:29:13.760Z,1008.54
2018-07-21T07:30:13.832Z,1008.59
2018-07-21T07:31:13.900Z,1008.54
2018-07-21T07:32:13.981Z,1008.51
2018-07-21T07:33:14.051Z,1008.55
2018-07-21T07:34:14.108Z,1008.60
2018-07-21T07:35:14.227Z,1008.63
2018-07-21T07:36:14.252Z,1008.73
2018-07-21T07:37:14.521Z,1008.85
2018-07-21T07:38:14.388Z,1009.15
2018-07-21T07:39:14.461Z,1009.23
2018-07-21T07:40:14.529Z,1009.35
2018-07-21T07:41:14.605Z,1009.33
2018-07-21T07:42:14.709Z,1009.19
2018-07-21T07:43:14.749Z,1008.90
2018-07-21T07:44:14.813Z,1008.94
2018-07-21T07:45:14.885Z,1009.00
2018-07-21T07:46:14.957Z,1008.86
2018-07-21T07:47:15.035Z,1009.23
2018-07-21T07:48:15.105Z,1009.30
2018-07-21T07:49:15.173Z,1008.99
2018-07-21T07:50:15.249Z,1008.85
2018-07-21T07:51:15.320Z,1008.68
2018-07-21T07:52:15.405Z,1008.59
2018-07-21T07:53:15.469Z,1008.62
2018-07-21T07:54:15.533Z,1008.54
2018-07-21T07:55:15.622Z,1008.54
2018-07-21T07:56:15.681Z,1008.55
2018-07-21T07:57:15.758Z,1008.59
2018-07-21T07:58:15.829Z,1008.61
2018-07-21T07:59:15.897Z,1008.62
2018-07-21T08:00:15.969Z,1008.59
2018-07-21T08:01:16.078Z,1008.67
2018-07-21T08:02:16.125Z,1008.65
2018-07-21T08:03:16.181Z,1008.65
2018-07-21T08:04:16.253Z,1008.67
2018-07-21T08:05:16.326Z,1008.79
2018-07-21T08:06:16.397Z,1008.91
2018-07-21T08:07:16.482Z,1009.02
2018-07-21T08:08:16.566Z,1008.99
2018-07-21T08:09:16.618Z,1009.17
2018-07-21T08:10:16.691Z,1009.19
2018-07-21T08:11:16.766Z,1009.22
2018-07-21T08:12:16.846Z,1009.20
2018-07-21T08:13:16.914Z,1009.24
2018-07-21T08:14:17.045Z,1009.12
2018-07-21T08:15:17.062Z,1008.83
2018-07-21T08:16:17.130Z,1008.95
2018-07-21T08:17:17.290Z,1009.06
2018-07-21T08:18:17.305Z,1009.07
2018-07-21T08:19:17.358Z,1009.13
2018-07-21T08:20:17.434Z,1009.01
2018-07-21T08:21:17.510Z,1008.99
2018-07-21T08:22:17.590Z,1009.06
2018-07-21T08:23:17.666Z,1008.64
2018-07-21T08:24:17.738Z,1008.81
2018-07-21T08:25:17.812Z,1008.96
2018-07-21T08:26:17.890Z,1008.99
2018-07-21T08:27:17.971Z,1009.01
2018-07-21T08:28:18.049Z,1009.07
2018-07-21T08:29:18.122Z,1009.02
2018-07-21T08:30:18.198Z,1009.01
2018-07-21T08:31:18.270Z,1008.97
2018-07-21T08:32:18.365Z,1009.01
2018-07-21T08:33:18.427Z,1009.02
2018-07-21T08:34:18.502Z,1009.02
2018-07-21T08:35:18.579Z,1008.99
2018-07-21T08:36:18.655Z,1009.04
2018-07-21T08:37:18.742Z,1008.99
2018-07-21T08:38:18.819Z,1009.30
2018-07-21T08:39:18.892Z,1010.03
2018-07-21T08:40:18.967Z,1010.44
2018-07-21T08:41:19.047Z,1009.93
2018-07-21T08:42:19.139Z,1009.42
2018-07-21T08:43:19.203Z,1008.97
2018-07-21T08:44:19.283Z,1008.87
2018-07-21T08:45:19.365Z,1008.88
2018-07-21T08:46:19.443Z,1008.88
2018-07-21T08:47:19.532Z,1008.85
2018-07-21T08:48:19.607Z,1008.84
2018-07-21T08:49:19.684Z,1008.84
2018-07-21T08:50:19.759Z,1008.70
2018-07-21T08:51:19.840Z,1008.56
2018-07-21T08:52:19.927Z,1008.51
2018-07-21T08:53:20.008Z,1008.54
2018-07-21T08:54:20.080Z,1008.52
2018-07-21T08:55:20.163Z,1008.51
2018-07-21T08:56:20.239Z,1008.52
2018-07-21T08:57:20.471Z,1008.49
2018-07-21T08:58:20.395Z,1008.44
2018-07-21T08:59:20.479Z,1008.46
2018-07-21T09:00:20.556Z,1008.51
2018-07-21T09:01:20.636Z,1008.48
2018-07-21T09:02:20.724Z,1008.48
2018-07-21T09:03:20.801Z,1008.47
2018-07-21T09:04:20.871Z,1008.41
2018-07-21T09:05:20.960Z,1008.42
2018-07-21T09:06:21.028Z,1008.36
2018-07-21T09:07:21.280Z,1008.34
2018-07-21T09:08:21.184Z,1008.32
2018-07-21T09:09:21.269Z,1008.34
2018-07-21T09:10:21.344Z,1008.34
2018-07-21T09:11:21.420Z,1008.28
2018-07-21T09:12:21.508Z,1008.29
2018-07-21T09:13:21.589Z,1008.29
2018-07-21T09:14:21.656Z,1008.25
2018-07-21T09:15:21.737Z,1008.22
2018-07-21T09:16:21.812Z,1008.22
2018-07-21T09:17:21.900Z,1008.23
2018-07-21T09:18:21.976Z,1008.25
2018-07-21T09:19:22.048Z,1008.27
2018-07-21T09:20:22.132Z,1008.22
2018-07-21T09:21:22.236Z,1008.22
2018-07-21T09:22:22.441Z,1008.21
2018-07-21T09:23:22.365Z,1008.20
2018-07-21T09:24:22.436Z,1008.23
2018-07-21T09:25:22.521Z,1008.23
2018-07-21T09:26:22.596Z,1008.20
2018-07-21T09:27:22.680Z,1008.23
2018-07-21T09:28:22.756Z,1008.25
2018-07-21T09:29:22.832Z,1008.27
2018-07-21T09:30:22.908Z,1008.24
2018-07-21T09:31:22.989Z,1008.25
2018-07-21T09:32:23.069Z,1008.21
2018-07-21T09:33:23.144Z,1008.27
2018-07-21T09:34:23.221Z,1008.25
2018-07-21T09:35:23.293Z,1008.29
2018-07-21T09:36:23.372Z,1008.23
2018-07-21T09:37:23.457Z,1008.22
2018-07-21T09:38:23.537Z,1008.23
2018-07-21T09:39:23.601Z,1008.30
2018-07-21T09:40:23.681Z,1008.20
2018-07-21T09:41:23.757Z,1008.12
2018-07-21T09:42:23.844Z,1008.15
2018-07-21T09:43:23.917Z,1008.22
2018-07-21T09:44:23.989Z,1008.23
2018-07-21T09:45:24.065Z,1008.30
2018-07-21T09:46:24.143Z,1008.14
2018-07-21T09:47:24.241Z,1008.13
2018-07-21T09:48:24.297Z,1008.25
2018-07-21T09:49:24.373Z,1008.21
2018-07-21T09:50:24.449Z,1008.11
2018-07-21T09:51:24.525Z,1008.12
2018-07-21T09:52:24.613Z,1008.15
2018-07-21T09:53:24.686Z,1008.21
2018-07-21T09:54:24.757Z,1008.20
2018-07-21T09:55:24.833Z,1008.21
2018-07-21T09:56:24.909Z,1008.27
2018-07-21T09:57:24.990Z,1008.28
2018-07-21T09:58:25.070Z,1008.26
2018-07-21T09:59:25.138Z,1008.25
2018-07-21T10:00:25.209Z,1008.24
2018-07-21T10:01:25.295Z,1008.21
2018-07-21T10:02:25.386Z,1008.25
2018-07-21T10:03:25.437Z,1008.27
2018-07-21T10:04:25.514Z,1008.28
2018-07-21T10:05:25.589Z,1008.29
2018-07-21T10:06:25.666Z,1008.33
2018-07-21T10:07:25.750Z,1008.31
2018-07-21T10:08:25.821Z,1008.28
2018-07-21T10:09:25.907Z,1008.26
2018-07-21T10:10:25.970Z,1008.23
2018-07-21T10:11:26.042Z,1008.27
2018-07-21T10:12:26.239Z,1008.17
2018-07-21T10:13:26.196Z,1008.17
2018-07-21T10:14:26.270Z,1008.21
2018-07-21T10:15:26.357Z,1008.17
2018-07-21T10:16:26.422Z,1008.19
2018-07-21T10:17:26.510Z,1008.16
2018-07-21T10:18:26.583Z,1008.20
2018-07-21T10:19:26.652Z,1008.19
2018-07-21T10:20:26.726Z,1008.19
2018-07-21T10:21:26.798Z,1008.16
2018-07-21T10:22:26.882Z,1008.17
2018-07-21T10:23:26.963Z,1008.16
2018-07-21T10:24:27.031Z,1008.17
2018-07-21T10:25:27.102Z,1008.22
2018-07-21T10:26:27.178Z,1008.19
2018-07-21T10:27:27.655Z,1008.18
2018-07-21T10:28:27.381Z,1008.14
2018-07-21T10:29:27.403Z,1008.16
2018-07-21T10:30:27.479Z,1008.17
2018-07-21T10:31:27.556Z,1008.15
2018-07-21T10:32:27.631Z,1008.11
2018-07-21T10:33:27.783Z,1008.22
2018-07-21T10:34:27.783Z,1008.16
2018-07-21T10:35:27.855Z,1008.18
2018-07-21T10:36:27.927Z,1008.21
2018-07-21T10:37:28.003Z,1008.19
2018-07-21T10:38:28.339Z,1008.19
2018-07-21T10:39:28.155Z,1008.15
2018-07-21T10:40:28.249Z,1008.15
2018-07-21T10:41:28.304Z,1008.18
2018-07-21T10:42:28.379Z,1008.18
2018-07-21T10:43:28.460Z,1008.17
2018-07-21T10:44:28.557Z,1008.16
2018-07-21T10:45:28.604Z,1008.16
2018-07-21T10:46:28.686Z,1008.12
2018-07-21T10:47:28.751Z,1008.13
2018-07-21T10:48:28.835Z,1008.11
2018-07-21T10:49:28.911Z,1008.07
2018-07-21T10:50:28.984Z,1008.06
2018-07-21T10:51:29.052Z,1008.09
2018-07-21T10:52:29.127Z,1008.09
2018-07-21T10:53:29.364Z,1008.09
2018-07-21T10:54:29.280Z,1008.10
2018-07-21T10:55:29.353Z,1008.08
2018-07-21T10:56:29.423Z,1008.03
2018-07-21T10:57:29.504Z,1008.03
2018-07-21T10:58:29.584Z,1008.06
2018-07-21T10:59:29.660Z,1008.05
2018-07-21T11:00:29.728Z,1008.05
2018-07-21T11:01:29.800Z,1008.05
2018-07-21T11:02:29.876Z,1008.04
2018-07-21T11:03:29.956Z,1008.03
2018-07-21T11:04:30.036Z,1008.02
2018-07-21T11:05:30.101Z,1008.06
2018-07-21T11:06:30.179Z,1008.10
2018-07-21T11:07:30.249Z,1008.05
2018-07-21T11:08:30.324Z,1008.04
2018-07-21T11:09:30.555Z,1008.03
2018-07-21T11:10:30.472Z,1008.02
2018-07-21T11:11:30.544Z,1008.02
2018-07-21T11:12:30.625Z,1008.03
2018-07-21T11:13:30.697Z,1007.99
2018-07-21T11:14:30.777Z,1008.01
2018-07-21T11:15:30.904Z,1008.04
2018-07-21T11:16:30.916Z,1008.01
2018-07-21T11:17:31.001Z,1008.01
2018-07-21T11:18:31.094Z,1008.01
2018-07-21T11:19:31.292Z,1008.03
2018-07-21T11:20:31.217Z,1008.01
2018-07-21T11:21:31.288Z,1008.03
2018-07-21T11:22:31.365Z,1008.06
2018-07-21T11:23:31.437Z,1008.05
2018-07-21T11:24:31.521Z,1008.02
2018-07-21T11:25:31.594Z,1008.01
2018-07-21T11:26:31.661Z,1008.07
2018-07-21T11:27:31.733Z,1008.00
2018-07-21T11:28:31.809Z,1008.04
2018-07-21T11:29:31.890Z,1008.04
2018-07-21T11:30:31.961Z,1008.00
2018-07-21T11:31:32.029Z,1008.02
2018-07-21T11:32:32.105Z,1008.01
2018-07-21T11:33:32.177Z,1008.01
2018-07-21T11:34:32.291Z,1008.01
2018-07-21T11:35:32.496Z,1008.01
2018-07-21T11:36:32.439Z,1008.02
2018-07-21T11:37:32.473Z,1008.00
2018-07-21T11:38:32.554Z,1007.94
2018-07-21T11:39:32.630Z,1007.96
2018-07-21T11:40:32.706Z,1007.95
2018-07-21T11:41:32.773Z,1007.98
2018-07-21T11:42:32.850Z,1007.94
2018-07-21T11:43:32.917Z,1007.97
2018-07-21T11:44:33.039Z,1007.98
2018-07-21T11:45:33.074Z,1008.00
2018-07-21T11:46:33.142Z,1008.02
2018-07-21T11:47:33.226Z,1008.04
2018-07-21T11:48:33.300Z,1008.02
2018-07-21T11:49:33.381Z,1007.97
2018-07-21T11:50:33.438Z,1007.99
2018-07-21T11:51:33.514Z,1008.05
2018-07-21T11:52:33.586Z,1007.97
2018-07-21T11:53:33.662Z,1008.01
2018-07-21T11:54:33.742Z,1008.04
2018-07-21T11:55:33.826Z,1008.02
2018-07-21T11:56:33.882Z,1008.03
2018-07-21T11:57:33.958Z,1008.07
2018-07-21T11:58:34.034Z,1008.08
2018-07-21T11:59:34.378Z,1008.10
2018-07-21T12:00:34.182Z,1008.06
2018-07-21T12:01:34.254Z,1008.15
2018-07-21T12:02:34.330Z,1008.10
2018-07-21T12:03:34.410Z,1008.10
2018-07-21T12:04:34.486Z,1008.00
2018-07-21T12:05:34.588Z,1008.03
2018-07-21T12:06:34.631Z,1008.08